createdAt,value
2018-04-15T00:00:18.694Z,9.21
2018-04-15T00:01:22.937Z,9.19
2018-04-15T00:02:27.072Z,9.03
2018-04-15T00:03:31.201Z,8.87
2018-04-15T00:04:35.351Z,8.70
2018-04-15T00:05:39.569Z,8.68
2018-04-15T00:06:43.715Z,8.65
2018-04-15T00:07:47.854Z,8.69
2018-04-15T00:08:52.321Z,8.53
2018-04-15T00:09:56.604Z,8.36
2018-04-15T00:11:00.844Z,8.26
2018-04-15T00:12:05.345Z,8.22
2018-04-15T00:13:09.509Z,8.16
2018-04-15T00:14:13.761Z,8.08
2018-04-15T00:15:18.185Z,8.09
2018-04-15T00:16:22.509Z,8.08
2018-04-15T00:17:26.649Z,8.13
2018-04-15T00:18:31.111Z,8.21
2018-04-15T00:19:35.249Z,8.20
2018-04-15T00:20:39.499Z,8.16
2018-04-15T00:21:43.751Z,8.10
2018-04-15T00:22:48.130Z,8.07
2018-04-15T00:23:52.274Z,8.04
2018-04-15T00:24:56.813Z,7.99
2018-04-15T00:26:00.944Z,7.96
2018-04-15T00:27:06.068Z,7.95
2018-04-15T00:28:10.297Z,7.99
2018-04-15T00:29:14.466Z,8.17
2018-04-15T00:30:18.789Z,8.37
2018-04-15T00:31:22.946Z,8.42
2018-04-15T00:32:27.087Z,8.38
2018-04-15T00:33:31.227Z,8.30
2018-04-15T00:34:35.461Z,8.22
2018-04-15T00:35:39.622Z,8.16
2018-04-15T00:36:43.747Z,8.15
2018-04-15T00:37:48.233Z,8.21
2018-04-15T00:38:52.361Z,8.20
2018-04-15T00:39:56.590Z,8.16
2018-04-15T00:41:00.738Z,8.11
2018-04-15T00:42:04.859Z,8.07
2018-04-15T00:43:09.438Z,8.05
2018-04-15T00:44:13.920Z,8.05
2018-04-15T00:45:18.547Z,8.04
2018-04-15T00:46:22.688Z,8.11
2018-04-15T00:47:27.181Z,8.18
2018-04-15T00:48:31.499Z,8.24
2018-04-15T00:49:35.699Z,8.29
2018-04-15T00:50:41.215Z,8.35
2018-04-15T00:51:45.623Z,8.37
2018-04-15T00:52:49.749Z,8.38
2018-04-15T00:54:03.649Z,8.41
2018-04-15T00:55:07.762Z,8.40
2018-04-15T00:56:11.976Z,8.33
2018-04-15T00:57:16.117Z,8.28
2018-04-15T00:58:20.254Z,8.23
2018-04-15T00:59:24.401Z,8.19
2018-04-15T01:00:28.962Z,8.14
2018-04-15T01:01:33.110Z,8.13
2018-04-15T01:02:37.267Z,8.12
2018-04-15T01:03:41.684Z,8.11
2018-04-15T01:04:45.856Z,8.09
2018-04-15T01:05:50.080Z,8.10
2018-04-15T01:06:54.611Z,8.09
2018-04-15T01:07:59.291Z,8.11
2018-04-15T01:09:04.431Z,8.12
2018-04-15T01:10:08.767Z,8.08
2018-04-15T01:11:13.284Z,8.08
2018-04-15T01:12:17.757Z,8.05
2018-04-15T01:13:22.736Z,8.03
2018-04-15T01:14:27.155Z,8.06
2018-04-15T01:15:31.635Z,8.06
2018-04-15T01:16:35.843Z,8.11
2018-04-15T01:17:40.033Z,8.09
2018-04-15T01:18:44.165Z,8.12
2018-04-15T01:19:48.957Z,8.19
2018-04-15T01:20:53.389Z,8.14
2018-04-15T01:21:57.573Z,8.14
2018-04-15T01:23:02.373Z,8.20
2018-04-15T01:24:06.551Z,8.20
2018-04-15T01:25:10.680Z,8.21
2018-04-15T01:26:15.126Z,8.17
2018-04-15T01:27:19.250Z,8.14
2018-04-15T01:28:23.460Z,8.12
2018-04-15T01:29:27.618Z,8.12
2018-04-15T01:30:32.259Z,8.09
2018-04-15T01:31:36.392Z,8.05
2018-04-15T01:32:40.534Z,8.01
2018-04-15T01:33:44.759Z,7.96
2018-04-15T01:34:48.948Z,7.94
2018-04-15T01:35:53.091Z,7.91
2018-04-15T01:36:58.683Z,7.88
2018-04-15T01:38:02.914Z,7.87
2018-04-15T01:39:07.425Z,7.86
2018-04-15T01:40:11.923Z,7.86
2018-04-15T01:41:16.391Z,7.87
2018-04-15T01:42:20.761Z,7.90
2018-04-15T01:43:25.567Z,7.95
2018-04-15T01:44:29.796Z,7.99
2018-04-15T01:45:34.199Z,8.01
2018-04-15T01:46:38.598Z,8.03
2018-04-15T01:47:43.085Z,8.00
2018-04-15T01:48:47.524Z,7.98
2018-04-15T01:49:52.366Z,7.98
2018-04-15T01:50:57.469Z,7.98
2018-04-15T01:52:01.656Z,8.09
2018-04-15T01:53:06.200Z,8.30
2018-04-15T01:54:10.686Z,8.48
2018-04-15T01:55:15.500Z,8.53
2018-04-15T01:56:19.724Z,8.47
2018-04-15T01:57:24.236Z,8.44
2018-04-15T01:58:28.377Z,8.41
2018-04-15T01:59:32.730Z,8.35
2018-04-15T02:00:37.301Z,8.30
2018-04-15T02:01:41.725Z,8.28
2018-04-15T02:02:45.865Z,8.27
2018-04-15T02:03:49.993Z,8.24
2018-04-15T02:04:54.256Z,8.21
2018-04-15T02:05:59.026Z,8.19
2018-04-15T02:07:03.170Z,8.16
2018-04-15T02:08:07.846Z,8.11
2018-04-15T02:09:12.014Z,8.09
2018-04-15T02:10:16.253Z,8.12
2018-04-15T02:11:20.371Z,8.15
2018-04-15T02:12:24.512Z,8.17
2018-04-15T02:13:28.767Z,8.21
2018-04-15T02:14:33.217Z,8.20
2018-04-15T02:15:37.741Z,8.17
2018-04-15T02:16:41.937Z,8.13
2018-04-15T02:17:46.087Z,8.09
2018-04-15T02:18:50.341Z,8.05
2018-04-15T02:19:54.443Z,8.03
2018-04-15T02:20:58.648Z,8.09
2018-04-15T02:22:02.783Z,8.21
2018-04-15T02:23:07.787Z,8.31
2018-04-15T02:24:11.921Z,8.35
2018-04-15T02:25:16.919Z,8.24
2018-04-15T02:26:21.466Z,8.15
2018-04-15T02:27:25.583Z,8.07
2018-04-15T02:28:29.703Z,8.02
2018-04-15T02:29:33.919Z,7.96
2018-04-15T02:30:38.368Z,7.93
2018-04-15T02:31:42.817Z,7.93
2018-04-15T02:32:47.215Z,7.93
2018-04-15T02:33:51.406Z,7.93
2018-04-15T02:34:55.577Z,7.95
2018-04-15T02:35:59.712Z,7.96
2018-04-15T02:37:03.866Z,7.95
2018-04-15T02:38:08.871Z,7.95
2018-04-15T02:39:14.157Z,7.94
2018-04-15T02:40:18.289Z,7.91
2018-04-15T02:41:22.609Z,7.89
2018-04-15T02:42:26.827Z,7.89
2018-04-15T02:43:31.051Z,7.94
2018-04-15T02:44:35.187Z,7.99
2018-04-15T02:45:40.147Z,7.96
2018-04-15T02:46:44.369Z,7.96
2018-04-15T02:47:48.545Z,7.97
2018-04-15T02:48:52.926Z,8.07
2018-04-15T02:49:57.423Z,8.25
2018-04-15T02:51:01.915Z,8.46
2018-04-15T02:52:06.883Z,8.58
2018-04-15T02:53:11.319Z,8.67
2018-04-15T02:54:15.891Z,8.65
2018-04-15T02:55:21.041Z,8.69
2018-04-15T02:56:25.812Z,8.62
2018-04-15T02:57:29.940Z,8.51
2018-04-15T02:58:34.281Z,8.53
2018-04-15T02:59:39.061Z,8.54
2018-04-15T03:00:43.826Z,8.58
2018-04-15T03:01:47.940Z,8.60
2018-04-15T03:02:52.140Z,8.66
2018-04-15T03:03:56.321Z,8.70
2018-04-15T03:05:00.772Z,8.70
2018-04-15T03:06:04.910Z,8.63
2018-04-15T03:07:09.166Z,8.65
2018-04-15T03:08:13.316Z,8.74
2018-04-15T03:09:17.520Z,8.81
2018-04-15T03:10:21.734Z,8.84
2018-04-15T03:11:26.199Z,8.87
2018-04-15T03:12:30.416Z,8.82
2018-04-15T03:13:34.552Z,8.76
2018-04-15T03:14:38.778Z,8.78
2018-04-15T03:15:43.195Z,8.83
2018-04-15T03:16:47.329Z,8.88
2018-04-15T03:17:51.769Z,8.84
2018-04-15T03:18:56.295Z,8.80
2018-04-15T03:20:00.765Z,8.70
2018-04-15T03:21:04.937Z,8.60
2018-04-15T03:22:09.069Z,8.57
2018-04-15T03:23:13.313Z,8.58
2018-04-15T03:24:19.681Z,8.64
2018-04-15T03:25:24.265Z,8.68
2018-04-15T03:26:28.696Z,8.82
2018-04-15T03:27:33.235Z,8.85
2018-04-15T03:28:37.635Z,8.85
2018-04-15T03:29:42.092Z,8.84
2018-04-15T03:31:52.505Z,8.81
2018-04-15T03:32:56.712Z,8.79
2018-04-15T03:34:00.887Z,8.78
2018-04-15T03:35:05.113Z,8.81
2018-04-15T03:36:09.245Z,8.88
2018-04-15T03:37:13.755Z,8.95
2018-04-15T03:38:19.425Z,8.96
2018-04-15T03:39:23.810Z,8.92
2018-04-15T03:40:28.167Z,8.91
2018-04-15T03:41:32.306Z,8.92
2018-04-15T03:42:36.882Z,8.88
2018-04-15T03:43:41.450Z,8.93
2018-04-15T03:44:46.114Z,8.99
2018-04-15T03:45:50.830Z,8.99
2018-04-15T03:46:55.383Z,8.99
2018-04-15T03:47:59.506Z,9.00
2018-04-15T03:49:03.661Z,8.99
2018-04-15T03:50:07.800Z,9.08
2018-04-15T03:51:11.998Z,9.19
2018-04-15T03:52:16.497Z,9.30
2018-04-15T03:53:20.706Z,9.43
2018-04-15T03:54:24.888Z,9.43
2018-04-15T03:55:29.006Z,9.45
2018-04-15T03:56:33.157Z,9.40
2018-04-15T03:57:37.689Z,9.32
2018-04-15T03:58:41.833Z,9.25
2018-04-15T03:59:45.944Z,9.22
2018-04-15T04:00:50.866Z,9.27
2018-04-15T04:01:55.547Z,9.36
2018-04-15T04:02:59.741Z,9.44
2018-04-15T04:04:04.213Z,9.58
2018-04-15T04:05:08.365Z,9.59
2018-04-15T04:06:12.498Z,9.50
2018-04-15T04:07:16.709Z,9.41
2018-04-15T04:08:20.853Z,9.30
2018-04-15T04:09:25.041Z,9.21
2018-04-15T04:10:30.569Z,9.13
2018-04-15T04:11:34.721Z,9.07
2018-04-15T04:12:38.977Z,9.11
2018-04-15T04:13:43.214Z,9.14
2018-04-15T04:14:47.380Z,9.10
2018-04-15T04:15:51.785Z,9.07
2018-04-15T04:16:56.325Z,9.04
2018-04-15T04:20:18.240Z,8.99
2018-04-15T04:25:42.701Z,8.94
2018-04-15T04:26:46.971Z,8.89
2018-04-15T04:27:51.390Z,8.83
2018-04-15T04:28:55.529Z,8.86
2018-04-15T04:29:59.751Z,8.88
2018-04-15T04:31:04.056Z,8.88
2018-04-15T04:32:08.201Z,8.84
2018-04-15T04:33:12.415Z,8.80
2018-04-15T04:34:16.897Z,8.79
2018-04-15T04:35:21.543Z,8.76
2018-04-15T04:36:26.456Z,8.86
2018-04-15T04:37:30.797Z,8.93
2018-04-15T04:38:35.047Z,9.02
2018-04-15T04:39:39.519Z,9.14
2018-04-15T04:40:44.473Z,9.15
2018-04-15T04:41:48.781Z,9.18
2018-04-15T04:42:53.443Z,9.20
2018-04-15T04:43:57.549Z,9.20
2018-04-15T04:45:03.716Z,9.28
2018-04-15T04:46:08.165Z,9.29
2018-04-15T04:47:12.529Z,9.25
2018-04-15T04:48:16.687Z,9.30
2018-04-15T04:49:21.831Z,9.36
2018-04-15T04:50:27.109Z,9.44
2018-04-15T04:51:31.551Z,9.48
2018-04-15T04:52:36.031Z,9.51
2018-04-15T04:53:40.866Z,9.54
2018-04-15T04:54:45.261Z,9.57
2018-04-15T04:55:49.635Z,9.58
2018-04-15T04:56:53.769Z,9.59
2018-04-15T04:57:58.069Z,9.75
2018-04-15T04:59:02.648Z,9.89
2018-04-15T05:00:08.073Z,9.92
2018-04-15T05:01:12.236Z,10.03
2018-04-15T05:02:16.501Z,10.17
2018-04-15T05:03:20.838Z,10.11
2018-04-15T05:04:25.930Z,10.01
2018-04-15T05:05:30.361Z,9.94
2018-04-15T05:06:34.831Z,9.92
2018-04-15T05:07:39.197Z,9.91
2018-04-15T05:08:43.363Z,9.96
2018-04-15T05:09:47.585Z,9.99
2018-04-15T05:10:51.737Z,10.02
2018-04-15T05:11:57.207Z,10.15
2018-04-15T05:13:01.344Z,10.26
2018-04-15T05:14:05.524Z,10.34
2018-04-15T05:15:09.975Z,10.36
2018-04-15T05:16:14.127Z,10.29
2018-04-15T05:17:18.310Z,10.28
2018-04-15T05:18:22.933Z,10.34
2018-04-15T05:19:27.152Z,10.44
2018-04-15T05:20:31.357Z,10.48
2018-04-15T05:21:35.808Z,10.52
2018-04-15T05:22:40.226Z,10.55
2018-04-15T05:23:44.725Z,10.51
2018-04-15T05:24:49.763Z,10.48
2018-04-15T05:25:54.269Z,10.49
2018-04-15T05:26:58.760Z,10.46
2018-04-15T05:28:03.181Z,10.40
2018-04-15T05:29:07.603Z,10.39
2018-04-15T05:30:13.499Z,10.36
2018-04-15T05:31:18.525Z,10.32
2018-04-15T05:32:23.438Z,10.25
2018-04-15T05:33:28.178Z,10.22
2018-04-15T05:34:32.688Z,10.17
2018-04-15T05:35:36.827Z,10.12
2018-04-15T05:36:40.955Z,10.07
2018-04-15T05:37:45.593Z,10.03
2018-04-15T05:38:49.783Z,9.90
2018-04-15T05:39:53.945Z,9.76
2018-04-15T05:40:58.059Z,9.67
2018-04-15T05:42:02.177Z,9.74
2018-04-15T05:43:06.769Z,9.77
2018-04-15T05:44:11.987Z,9.84
2018-04-15T05:45:16.488Z,9.92
2018-04-15T05:46:21.999Z,9.93
2018-04-15T05:47:28.165Z,9.94
2018-04-15T05:48:32.629Z,9.95
2018-04-15T05:49:36.781Z,9.94
2018-04-15T05:50:41.212Z,9.96
2018-04-15T05:51:45.835Z,9.96
2018-04-15T05:52:49.997Z,9.95
2018-04-15T05:53:54.139Z,9.88
2018-04-15T05:54:58.385Z,9.79
2018-04-15T05:56:02.665Z,9.74
2018-04-15T05:57:07.085Z,9.69
2018-04-15T05:58:11.309Z,9.65
2018-04-15T05:59:15.429Z,9.60
2018-04-15T06:00:20.388Z,9.57
2018-04-15T06:01:25.580Z,9.54
2018-04-15T06:02:30.123Z,9.48
2018-04-15T06:03:34.248Z,9.45
2018-04-15T06:04:38.525Z,9.42
2018-04-15T06:05:42.685Z,9.42
2018-04-15T06:06:46.821Z,9.43
2018-04-15T06:07:51.061Z,9.38
2018-04-15T06:08:56.563Z,9.31
2018-04-15T06:10:00.716Z,9.29
2018-04-15T06:11:04.837Z,9.28
2018-04-15T06:12:09.058Z,9.26
2018-04-15T06:13:13.226Z,9.28
2018-04-15T06:14:17.367Z,9.27
2018-04-15T06:15:21.835Z,9.27
2018-04-15T06:16:26.055Z,9.32
2018-04-15T06:17:30.279Z,9.35
2018-04-15T06:18:34.406Z,9.38
2018-04-15T06:19:38.662Z,9.40
2018-04-15T06:20:43.164Z,9.36
2018-04-15T06:21:47.391Z,9.39
2018-04-15T06:22:51.545Z,9.40
2018-04-15T06:23:55.793Z,9.46
2018-04-15T06:24:59.927Z,9.50
2018-04-15T06:26:04.177Z,9.51
2018-04-15T06:27:08.718Z,9.45
2018-04-15T06:28:12.881Z,9.46
2018-04-15T06:29:17.015Z,9.47
2018-04-15T06:30:22.438Z,9.46
2018-04-15T06:31:26.621Z,9.51
2018-04-15T06:32:30.759Z,9.64
2018-04-15T06:33:35.263Z,9.72
2018-04-15T06:34:39.479Z,9.76
2018-04-15T06:35:43.713Z,9.80
2018-04-15T06:36:47.914Z,9.82
2018-04-15T06:37:52.063Z,9.84
2018-04-15T06:38:56.189Z,9.88
2018-04-15T06:40:00.781Z,9.90
2018-04-15T06:41:04.933Z,9.90
2018-04-15T06:42:09.164Z,9.91
2018-04-15T06:43:13.414Z,9.86
2018-04-15T06:44:17.626Z,9.78
2018-04-15T06:45:22.175Z,9.73
2018-04-15T06:46:26.724Z,9.63
2018-04-15T06:47:31.145Z,9.63
2018-04-15T06:48:35.683Z,9.59
2018-04-15T06:49:39.875Z,9.65
2018-04-15T06:50:44.009Z,9.74
2018-04-15T06:51:48.748Z,9.76
2018-04-15T06:52:53.118Z,9.79
2018-04-15T06:53:57.406Z,9.84
2018-04-15T06:55:01.675Z,9.86
2018-04-15T06:56:05.900Z,9.87
2018-04-15T06:57:10.053Z,9.82
2018-04-15T06:58:14.215Z,9.78
2018-04-15T06:59:18.900Z,9.77
2018-04-15T07:00:23.276Z,9.74
2018-04-15T07:01:27.472Z,9.75
2018-04-15T07:02:32.270Z,9.80
2018-04-15T07:03:36.556Z,9.86
2018-04-15T07:04:41.044Z,9.82
2018-04-15T07:05:45.304Z,9.80
2018-04-15T07:06:49.493Z,9.76
2018-04-15T07:07:53.677Z,9.76
2018-04-15T07:08:57.824Z,9.71
2018-04-15T07:10:02.051Z,9.72
2018-04-15T07:11:06.678Z,9.72
2018-04-15T07:12:10.854Z,9.77
2018-04-15T07:13:15.066Z,9.76
2018-04-15T07:14:19.272Z,9.80
2018-04-15T07:15:24.902Z,9.76
2018-04-15T07:16:29.089Z,9.68
2018-04-15T07:17:33.421Z,9.69
2018-04-15T07:18:37.668Z,9.70
2018-04-15T07:19:41.902Z,9.73
2018-04-15T07:20:46.062Z,9.76
2018-04-15T07:21:50.221Z,9.78
2018-04-15T07:22:54.719Z,9.75
2018-04-15T07:23:58.935Z,9.72
2018-04-15T07:25:03.131Z,9.71
2018-04-15T07:26:07.294Z,9.72
2018-04-15T07:27:11.453Z,9.71
2018-04-15T07:28:15.962Z,9.71
2018-04-15T07:29:20.187Z,9.75
2018-04-15T07:30:25.194Z,9.79
2018-04-15T07:31:30.252Z,9.80
2018-04-15T07:32:34.480Z,9.81
2018-04-15T07:33:38.667Z,9.81
2018-04-15T07:34:43.230Z,9.85
2018-04-15T07:35:47.475Z,9.90
2018-04-15T07:36:51.659Z,9.93
2018-04-15T07:37:55.892Z,9.91
2018-04-15T07:39:00.149Z,9.86
2018-04-15T07:40:04.337Z,9.82
2018-04-15T07:41:08.851Z,9.83
2018-04-15T07:42:13.019Z,9.83
2018-04-15T07:43:17.193Z,9.79
2018-04-15T07:44:21.564Z,9.75
2018-04-15T07:45:26.501Z,9.75
2018-04-15T07:46:31.435Z,9.75
2018-04-15T07:47:35.988Z,9.79
2018-04-15T07:48:40.149Z,9.79
2018-04-15T07:49:44.296Z,9.79
2018-04-15T07:50:48.573Z,9.79
2018-04-15T07:51:52.721Z,9.78
2018-04-15T07:52:56.849Z,9.79
2018-04-15T07:54:01.026Z,9.83
2018-04-15T07:55:05.182Z,9.89
2018-04-15T07:56:09.495Z,9.95
2018-04-15T07:57:13.665Z,9.98
2018-04-15T07:58:17.920Z,9.99
2018-04-15T07:59:22.054Z,10.02
2018-04-15T08:00:27.096Z,10.05
2018-04-15T08:01:31.358Z,10.04
2018-04-15T08:02:35.531Z,10.08
2018-04-15T08:03:40.056Z,10.08
2018-04-15T08:04:44.346Z,10.10
2018-04-15T08:05:48.523Z,10.11
2018-04-15T08:06:52.783Z,10.15
2018-04-15T08:07:56.953Z,10.19
2018-04-15T08:09:01.168Z,10.16
2018-04-15T08:10:05.685Z,10.22
2018-04-15T08:11:09.934Z,10.22
2018-04-15T08:12:14.317Z,10.21
2018-04-15T08:13:18.615Z,10.22
2018-04-15T08:14:22.873Z,10.21
2018-04-15T08:15:27.842Z,10.16
2018-04-15T08:16:32.296Z,10.08
2018-04-15T08:17:36.431Z,10.10
2018-04-15T08:18:40.694Z,10.13
2018-04-15T08:19:44.909Z,10.20
2018-04-15T08:20:49.134Z,10.28
2018-04-15T08:21:53.309Z,10.40
2018-04-15T08:22:58.003Z,10.48
2018-04-15T08:24:02.284Z,10.54
2018-04-15T08:25:06.832Z,10.53
2018-04-15T08:26:11.608Z,10.55
2018-04-15T08:27:15.864Z,10.57
2018-04-15T08:28:20.055Z,10.60
2018-04-15T08:29:24.301Z,10.58
2018-04-15T08:30:28.692Z,10.57
2018-04-15T08:31:32.868Z,10.57
2018-04-15T08:32:37.009Z,10.57
2018-04-15T08:33:41.166Z,10.53
2018-04-15T08:34:45.440Z,10.50
2018-04-15T08:35:49.949Z,10.48
2018-04-15T08:36:54.196Z,10.56
2018-04-15T08:37:58.425Z,10.60
2018-04-15T08:39:02.695Z,10.67
2018-04-15T08:40:06.929Z,10.65
2018-04-15T08:41:11.858Z,10.56
2018-04-15T08:42:16.363Z,10.47
2018-04-15T08:43:21.224Z,10.45
2018-04-15T08:44:25.533Z,10.42
2018-04-15T08:45:30.904Z,10.39
2018-04-15T08:46:35.068Z,10.41
2018-04-15T08:47:39.315Z,10.50
2018-04-15T08:48:43.471Z,10.60
2018-04-15T08:49:47.641Z,10.67
2018-04-15T08:50:51.877Z,10.68
2018-04-15T08:51:56.085Z,10.67
2018-04-15T08:53:00.331Z,10.59
2018-04-15T08:54:04.486Z,10.54
2018-04-15T08:55:08.737Z,10.55
2018-04-15T08:56:12.875Z,10.60
2018-04-15T08:57:17.441Z,10.70
2018-04-15T08:58:21.749Z,10.74
2018-04-15T08:59:25.920Z,10.72
2018-04-15T09:00:31.907Z,10.75
2018-04-15T09:01:36.351Z,10.76
2018-04-15T09:02:40.874Z,10.80
2018-04-15T09:03:45.057Z,10.80
2018-04-15T09:04:49.388Z,10.82
2018-04-15T09:05:53.543Z,10.87
2018-04-15T09:06:58.019Z,10.97
2018-04-15T09:08:02.190Z,11.07
2018-04-15T09:09:07.372Z,11.03
2018-04-15T09:10:11.621Z,11.06
2018-04-15T09:11:15.785Z,11.09
2018-04-15T09:12:20.030Z,11.08
2018-04-15T09:13:24.484Z,11.16
2018-04-15T09:14:28.789Z,11.20
2018-04-15T09:15:34.366Z,11.25
2018-04-15T09:16:39.418Z,11.30
2018-04-15T09:17:43.576Z,11.42
2018-04-15T09:18:47.742Z,11.41
2018-04-15T09:19:51.998Z,11.22
2018-04-15T09:20:56.195Z,11.12
2018-04-15T09:22:00.454Z,11.18
2018-04-15T09:23:04.654Z,11.16
2018-04-15T09:24:08.824Z,11.13
2018-04-15T09:25:13.142Z,11.13
2018-04-15T09:26:17.618Z,11.17
2018-04-15T09:27:21.758Z,11.28
2018-04-15T09:28:25.940Z,11.38
2018-04-15T09:29:30.771Z,11.43
2018-04-15T09:30:39.142Z,11.46
2018-04-15T09:31:43.586Z,11.47
2018-04-15T09:32:48.161Z,11.57
2018-04-15T09:33:52.384Z,11.69
2018-04-15T09:34:56.684Z,11.82
2018-04-15T09:36:00.876Z,11.89
2018-04-15T09:37:05.168Z,11.83
2018-04-15T09:38:09.353Z,11.87
2018-04-15T09:39:13.564Z,11.93
2018-04-15T09:40:17.747Z,12.03
2018-04-15T09:41:21.939Z,12.19
2018-04-15T09:42:26.273Z,12.34
2018-04-15T09:43:31.565Z,12.47
2018-04-15T09:44:36.906Z,12.52
2018-04-15T09:45:41.472Z,12.51
2018-04-15T09:46:45.788Z,12.49
2018-04-15T09:47:49.981Z,12.32
2018-04-15T09:48:54.127Z,12.22
2018-04-15T09:49:58.435Z,12.29
2018-04-15T09:51:02.930Z,12.28
2018-04-15T09:52:07.231Z,12.24
2018-04-15T09:53:11.453Z,12.31
2018-04-15T09:54:15.661Z,12.40
2018-04-15T09:55:19.969Z,12.47
2018-04-15T09:56:24.229Z,12.45
2018-04-15T09:57:28.750Z,12.34
2018-04-15T09:58:33.482Z,12.31
2018-04-15T09:59:37.781Z,12.28
2018-04-15T10:00:42.772Z,12.33
2018-04-15T10:01:47.052Z,12.38
2018-04-15T10:02:51.223Z,12.48
2018-04-15T10:03:55.710Z,12.61
2018-04-15T10:04:59.974Z,12.70
2018-04-15T10:06:04.136Z,12.74
2018-04-15T10:07:08.298Z,12.68
2018-04-15T10:08:12.517Z,12.53
2018-04-15T10:09:16.692Z,12.46
2018-04-15T10:10:20.927Z,12.41
2018-04-15T10:11:25.083Z,12.37
2018-04-15T10:12:29.418Z,12.30
2018-04-15T10:13:34.638Z,12.29
2018-04-15T10:14:39.742Z,12.24
2018-04-15T10:15:44.207Z,12.28
2018-04-15T10:16:48.754Z,12.31
2018-04-15T10:17:52.999Z,12.38
2018-04-15T10:18:57.186Z,12.49
2018-04-15T10:20:01.524Z,12.61
2018-04-15T10:21:05.714Z,12.68
2018-04-15T10:22:09.860Z,12.85
2018-04-15T10:23:14.351Z,13.03
2018-04-15T10:24:18.550Z,13.36
2018-04-15T10:25:22.840Z,13.76
2018-04-15T10:26:27.064Z,14.07
2018-04-15T10:27:31.363Z,14.24
2018-04-15T10:28:36.346Z,14.19
2018-04-15T10:29:40.877Z,14.17
2018-04-15T10:30:45.157Z,14.26
2018-04-15T10:31:49.489Z,14.30
2018-04-15T10:32:53.793Z,14.46
2018-04-15T10:33:57.959Z,14.63
2018-04-15T10:35:02.690Z,14.77
2018-04-15T10:36:06.867Z,14.90
2018-04-15T10:37:11.131Z,15.07
2018-04-15T10:38:15.355Z,15.29
2018-04-15T10:39:19.558Z,15.43
2018-04-15T10:40:23.721Z,15.51
2018-04-15T10:41:28.322Z,15.48
2018-04-15T10:42:32.503Z,15.38
2018-04-15T10:43:36.721Z,15.32
2018-04-15T10:44:41.950Z,15.39
2018-04-15T10:45:46.254Z,15.30
2018-04-15T10:46:50.574Z,15.44
2018-04-15T10:47:55.077Z,15.45
2018-04-15T10:48:59.274Z,15.51
2018-04-15T10:50:03.497Z,15.50
2018-04-15T10:51:07.769Z,15.71
2018-04-15T10:52:12.125Z,16.12
2018-04-15T10:53:16.336Z,16.25
2018-04-15T10:54:20.510Z,16.29
2018-04-15T10:55:24.787Z,16.28
2018-04-15T10:56:28.951Z,16.24
2018-04-15T10:57:33.107Z,16.27
2018-04-15T10:58:37.367Z,16.33
2018-04-15T10:59:41.878Z,16.42
2018-04-15T11:00:46.311Z,17.23
2018-04-15T11:01:50.872Z,17.99
2018-04-15T11:02:55.121Z,18.05
2018-04-15T11:03:59.360Z,17.79
2018-04-15T11:05:03.738Z,17.62
2018-04-15T11:06:08.087Z,17.21
2018-04-15T11:07:12.335Z,16.96
2018-04-15T11:08:16.532Z,17.02
2018-04-15T11:09:20.868Z,17.08
2018-04-15T11:10:25.089Z,17.53
2018-04-15T11:11:29.444Z,18.07
2018-04-15T11:12:33.657Z,18.92
2018-04-15T11:13:37.931Z,19.22
2018-04-15T11:14:42.145Z,18.99
2018-04-15T11:15:46.896Z,18.48
2018-04-15T11:16:51.394Z,17.90
2018-04-15T11:17:55.704Z,17.35
2018-04-15T11:18:59.965Z,16.91
2018-04-15T11:20:04.423Z,17.01
2018-04-15T11:21:08.639Z,17.23
2018-04-15T11:22:12.896Z,17.25
2018-04-15T11:23:17.348Z,17.06
2018-04-15T11:24:21.615Z,17.08
2018-04-15T11:25:25.783Z,16.97
2018-04-15T11:26:29.983Z,16.80
2018-04-15T11:27:34.149Z,16.64
2018-04-15T11:28:38.357Z,16.24
2018-04-15T11:29:42.953Z,16.16
2018-04-15T11:30:48.283Z,16.31
2018-04-15T11:31:53.118Z,16.30
2018-04-15T11:32:57.298Z,16.26
2018-04-15T11:34:01.575Z,16.20
2018-04-15T11:35:05.787Z,16.01
2018-04-15T11:36:09.967Z,15.91
2018-04-15T11:37:14.140Z,15.87
2018-04-15T11:38:18.360Z,15.69
2018-04-15T11:39:22.667Z,15.57
2018-04-15T11:40:26.903Z,15.57
2018-04-15T11:41:31.088Z,15.51
2018-04-15T11:42:35.570Z,15.53
2018-04-15T11:43:39.891Z,15.39
2018-04-15T11:44:44.247Z,15.31
2018-04-15T11:45:49.464Z,15.44
2018-04-15T11:46:54.510Z,15.61
2018-04-15T11:47:58.776Z,15.65
2018-04-15T11:49:03.184Z,15.73
2018-04-15T11:50:07.411Z,15.92
2018-04-15T11:51:11.650Z,16.03
2018-04-15T11:52:15.802Z,16.04
2018-04-15T11:53:20.188Z,16.15
2018-04-15T11:54:24.714Z,16.16
2018-04-15T11:55:28.937Z,16.22
2018-04-15T11:56:33.101Z,16.14
2018-04-15T11:57:37.521Z,16.19
2018-04-15T11:58:41.826Z,16.14
2018-04-15T11:59:46.769Z,16.01
2018-04-15T12:00:53.640Z,15.98
2018-04-15T12:01:58.632Z,16.12
2018-04-15T12:03:02.913Z,16.23
2018-04-15T12:04:07.247Z,16.60
2018-04-15T12:05:11.539Z,17.01
2018-04-15T12:06:15.855Z,17.39
2018-04-15T12:07:20.088Z,17.49
2018-04-15T12:08:24.332Z,17.51
2018-04-15T12:09:28.635Z,17.38
2018-04-15T12:10:32.929Z,17.45
2018-04-15T12:11:37.252Z,17.70
2018-04-15T12:12:41.485Z,18.60
2018-04-15T12:13:45.709Z,18.53
2018-04-15T12:14:50.171Z,18.50
2018-04-15T12:15:55.636Z,19.25
2018-04-15T12:16:59.907Z,19.10
2018-04-15T12:18:04.212Z,18.93
2018-04-15T12:19:08.802Z,19.03
2018-04-15T12:20:13.136Z,19.39
2018-04-15T12:21:17.404Z,19.25
2018-04-15T12:22:21.667Z,18.80
2018-04-15T12:23:25.969Z,18.94
2018-04-15T12:24:30.292Z,19.06
2018-04-15T12:25:34.855Z,18.76
2018-04-15T12:26:39.093Z,18.57
2018-04-15T12:27:43.340Z,18.46
2018-04-15T12:28:47.739Z,18.49
2018-04-15T12:29:52.050Z,19.26
2018-04-15T12:30:57.330Z,19.79
2018-04-15T12:32:01.525Z,19.60
2018-04-15T12:33:05.750Z,19.61
2018-04-15T12:34:10.046Z,19.69
2018-04-15T12:35:14.219Z,19.51
2018-04-15T12:36:19.561Z,19.35
2018-04-15T12:37:23.856Z,19.33
2018-04-15T12:38:28.104Z,19.11
2018-04-15T12:39:32.370Z,19.03
2018-04-15T12:40:36.572Z,19.32
2018-04-15T12:41:40.781Z,19.60
2018-04-15T12:42:44.962Z,19.75
2018-04-15T12:43:49.159Z,19.97
2018-04-15T12:44:54.255Z,19.86
2018-04-15T12:45:59.839Z,19.93
2018-04-15T12:47:04.411Z,20.36
2018-04-15T12:48:08.988Z,20.21
2018-04-15T12:49:13.156Z,20.04
2018-04-15T12:50:17.340Z,19.67
2018-04-15T12:51:21.620Z,19.58
2018-04-15T12:52:25.893Z,19.67
2018-04-15T12:53:30.085Z,19.62
2018-04-15T12:54:34.763Z,19.24
2018-04-15T12:55:39.121Z,19.26
2018-04-15T12:56:43.321Z,19.51
2018-04-15T12:57:47.525Z,19.92
2018-04-15T12:58:51.836Z,20.04
2018-04-15T12:59:56.099Z,19.92
2018-04-15T13:01:01.127Z,19.69
2018-04-15T13:02:05.489Z,19.69
2018-04-15T13:03:09.757Z,19.37
2018-04-15T13:04:14.874Z,18.89
2018-04-15T13:05:19.856Z,18.38
2018-04-15T13:06:24.129Z,17.98
2018-04-15T13:07:28.832Z,17.93
2018-04-15T13:08:33.038Z,18.15
2018-04-15T13:09:37.327Z,18.41
2018-04-15T13:10:41.546Z,18.49
2018-04-15T13:11:45.709Z,18.54
2018-04-15T13:12:50.177Z,18.31
2018-04-15T13:13:54.479Z,18.00
2018-04-15T13:14:58.895Z,18.74
2018-04-15T13:16:03.489Z,19.59
2018-04-15T13:17:07.662Z,20.09
2018-04-15T13:18:11.811Z,20.79
2018-04-15T13:19:17.000Z,21.48
2018-04-15T13:20:21.227Z,21.73
2018-04-15T13:21:25.645Z,21.32
2018-04-15T13:22:29.912Z,21.00
2018-04-15T13:23:34.243Z,20.38
2018-04-15T13:24:38.429Z,19.92
2018-04-15T13:25:42.835Z,20.50
2018-04-15T13:26:47.129Z,21.65
2018-04-15T13:27:51.373Z,23.12
2018-04-15T13:28:55.925Z,23.95
2018-04-15T13:30:00.323Z,23.39
2018-04-15T13:31:04.921Z,22.32
2018-04-15T13:32:09.256Z,22.29
2018-04-15T13:33:14.250Z,22.42
2018-04-15T13:34:18.690Z,22.57
2018-04-15T13:35:23.192Z,21.93
2018-04-15T13:36:27.591Z,21.66
2018-04-15T13:37:32.345Z,21.89
2018-04-15T13:38:36.876Z,22.24
2018-04-15T13:39:41.277Z,21.59
2018-04-15T13:40:45.604Z,21.09
2018-04-15T13:41:49.988Z,22.04
2018-04-15T13:42:54.664Z,23.08
2018-04-15T13:43:58.972Z,22.80
2018-04-15T13:45:04.634Z,21.77
2018-04-15T13:46:08.820Z,21.15
2018-04-15T13:47:13.444Z,20.64
2018-04-15T13:48:17.810Z,20.81
2018-04-15T13:49:22.045Z,21.11
2018-04-15T13:50:26.416Z,20.94
2018-04-15T13:51:31.477Z,20.31
2018-04-15T13:52:36.915Z,20.11
2018-04-15T13:53:41.206Z,19.80
2018-04-15T13:54:45.472Z,19.77
2018-04-15T13:55:49.757Z,20.85
2018-04-15T13:56:54.065Z,22.61
2018-04-15T13:57:58.691Z,22.50
2018-04-15T13:59:02.891Z,21.66
2018-04-15T14:00:07.770Z,21.31
2018-04-15T14:01:12.366Z,21.45
2018-04-15T14:02:16.620Z,22.05
2018-04-15T14:03:21.167Z,21.90
2018-04-15T14:04:25.362Z,21.37
2018-04-15T14:05:29.730Z,20.49
2018-04-15T14:06:33.899Z,19.78
2018-04-15T14:07:39.199Z,20.44
2018-04-15T14:08:43.693Z,20.84
2018-04-15T14:09:48.230Z,22.17
2018-04-15T14:10:52.700Z,23.81